createdAt,value
2023-04-27T00:02:39.330Z,31.46
2023-04-27T00:07:41.396Z,32.41
2023-04-27T00:12:43.217Z,31.65
2023-04-27T00:17:44.992Z,31.61
2023-04-27T00:22:47.653Z,31.05
2023-04-27T00:27:49.487Z,31.77
2023-04-27T00:32:51.262Z,33.89
2023-04-27T00:37:54.754Z,32.20
2023-04-27T00:42:56.582Z,31.62
2023-04-27T00:47:59.981Z,31.32
2023-04-27T00:53:02.259Z,32.94
2023-04-27T00:58:04.216Z,31.60
2023-04-27T01:03:08.136Z,31.68
2023-04-27T01:08:11.577Z,31.84
2023-04-27T01:13:13.560Z,31.58
2023-04-27T01:18:15.470Z,32.43
2023-04-27T01:23:17.625Z,34.47
2023-04-27T01:28:19.606Z,38.23
2023-04-27T01:33:22.406Z,33.83
2023-04-27T01:38:24.670Z,33.53
2023-04-27T01:43:26.514Z,34.82
2023-04-27T01:48:29.001Z,33.63
2023-04-27T01:53:31.162Z,35.21
2023-04-27T01:58:33.043Z,33.75
2023-04-27T02:03:35.031Z,33.59
2023-04-27T02:08:36.989Z,34.41
2023-04-27T02:13:38.858Z,37.52
2023-04-27T02:18:40.860Z,35.34
2023-04-27T02:23:44.652Z,35.51
2023-04-27T02:28:47.689Z,34.71
2023-04-27T02:33:50.000Z,33.91
2023-04-27T02:38:51.752Z,35.18
2023-04-27T02:43:53.546Z,33.88
2023-04-27T02:48:56.488Z,34.10
2023-04-27T02:53:58.566Z,33.22
2023-04-27T02:59:00.352Z,33.28
2023-04-27T03:04:02.434Z,34.00
2023-04-27T03:09:05.408Z,33.64
2023-04-27T03:14:07.296Z,33.95
2023-04-27T03:19:10.147Z,33.61
2023-04-27T03:24:11.959Z,34.65
2023-04-27T03:29:13.936Z,35.18
2023-04-27T03:34:15.941Z,34.64
2023-04-27T03:39:17.741Z,33.88
2023-04-27T03:44:20.163Z,33.46
2023-04-27T03:49:22.156Z,33.79
2023-04-27T03:54:23.954Z,33.27
2023-04-27T03:59:29.210Z,33.63
2023-04-27T04:04:31.407Z,34.12
2023-04-27T04:09:33.461Z,33.84
2023-04-27T04:14:35.639Z,34.02
2023-04-27T04:19:37.450Z,34.17
2023-04-27T04:24:40.245Z,34.75
2023-04-27T04:29:42.058Z,34.14
2023-04-27T04:34:44.401Z,34.58
2023-04-27T04:39:46.737Z,34.71
2023-04-27T04:44:48.639Z,33.89
2023-04-27T04:49:50.738Z,34.14
2023-04-27T04:54:53.258Z,33.62
2023-04-27T04:59:56.566Z,32.67
2023-04-27T05:04:58.516Z,33.71
2023-04-27T05:10:00.457Z,32.80
2023-04-27T05:15:02.354Z,34.18
2023-04-27T05:20:05.032Z,34.04
2023-04-27T05:25:07.286Z,35.49
2023-04-27T05:30:09.663Z,36.29
2023-04-27T05:35:11.629Z,35.10
2023-04-27T05:40:15.319Z,34.33
2023-04-27T05:45:17.311Z,33.98
2023-04-27T05:50:19.429Z,33.15
2023-04-27T05:55:21.736Z,33.70
2023-04-27T06:00:23.852Z,33.51
2023-04-27T06:05:27.128Z,33.15
2023-04-27T06:10:29.136Z,33.52
2023-04-27T06:15:31.070Z,32.65
2023-04-27T06:20:32.993Z,32.73
2023-04-27T06:25:35.820Z,33.40
2023-04-27T06:30:39.409Z,33.83
2023-04-27T06:35:41.584Z,33.55
2023-04-27T06:40:43.449Z,33.90
2023-04-27T06:45:45.544Z,33.97
2023-04-27T06:50:47.887Z,33.58
2023-04-27T06:55:51.105Z,36.01
2023-04-27T07:00:53.906Z,34.98
2023-04-27T07:05:57.282Z,34.85
2023-04-27T07:10:59.066Z,34.05
2023-04-27T07:16:01.507Z,33.11
2023-04-27T07:21:03.506Z,34.00
2023-04-27T07:26:05.883Z,32.98
2023-04-27T07:31:08.258Z,32.69
2023-04-27T07:36:10.266Z,32.30
2023-04-27T07:41:12.512Z,32.49
2023-04-27T07:46:14.437Z,31.72
2023-04-27T07:51:17.620Z,33.55
2023-04-27T07:56:19.405Z,33.11
2023-04-27T08:01:21.992Z,36.18
2023-04-27T08:06:24.101Z,38.66
2023-04-27T08:11:27.193Z,37.38
2023-04-27T08:16:29.066Z,37.19
2023-04-27T08:21:30.900Z,35.20
2023-04-27T08:26:33.793Z,39.95
2023-04-27T08:31:35.845Z,39.42
2023-04-27T08:36:37.677Z,37.10
2023-04-27T08:41:42.557Z,37.75
2023-04-27T08:46:44.473Z,41.00
2023-04-27T08:51:46.661Z,41.95
2023-04-27T08:56:48.486Z,39.17
2023-04-27T09:01:51.222Z,38.80
2023-04-27T09:06:53.145Z,36.00
2023-04-27T09:11:54.981Z,39.33
2023-04-27T09:16:59.438Z,39.48
2023-04-27T09:22:11.039Z,39.21
2023-04-27T09:27:19.837Z,36.74
2023-04-27T09:32:21.744Z,35.30
2023-04-27T09:37:24.325Z,35.99
2023-04-27T09:42:26.329Z,39.44
2023-04-27T09:47:28.859Z,37.34
2023-04-27T09:52:30.860Z,36.64
2023-04-27T09:57:37.310Z,34.56
2023-04-27T10:03:08.057Z,34.96
2023-04-27T10:08:11.717Z,33.83
2023-04-27T10:13:26.290Z,33.92
2023-04-27T10:18:31.454Z,37.49
2023-04-27T10:23:33.300Z,37.86
2023-04-27T10:28:40.173Z,41.53
2023-04-27T10:33:43.698Z,40.35
2023-04-27T10:38:45.534Z,38.90
2023-04-27T10:43:47.909Z,37.32
2023-04-27T10:48:49.705Z,38.83
2023-04-27T10:53:54.558Z,34.82
2023-04-27T10:59:05.307Z,33.06
2023-04-27T11:04:07.260Z,35.81
2023-04-27T11:09:10.699Z,35.07
2023-04-27T11:14:16.640Z,35.13
2023-04-27T11:19:18.614Z,35.78
2023-04-27T11:24:20.367Z,34.16
2023-04-27T11:29:22.845Z,34.48
2023-04-27T11:34:26.527Z,32.85
2023-04-27T11:39:29.462Z,34.84
2023-04-27T11:44:33.651Z,35.13
2023-04-27T11:49:35.461Z,34.46
2023-04-27T11:54:37.737Z,33.04
2023-04-27T11:59:39.489Z,31.33
2023-04-27T12:04:41.705Z,32.33
2023-04-27T12:09:43.776Z,32.77
2023-04-27T12:14:46.068Z,34.00
2023-04-27T12:19:47.835Z,34.46
2023-04-27T12:24:49.726Z,33.38
2023-04-27T12:29:52.239Z,34.41
2023-04-27T12:34:54.048Z,33.77
2023-04-27T12:39:56.254Z,32.02
2023-04-27T12:44:58.163Z,33.79
2023-04-27T12:49:59.991Z,34.20
2023-04-27T12:55:02.102Z,32.71
2023-04-27T13:00:06.463Z,31.66
2023-04-27T13:05:08.837Z,32.44
2023-04-27T13:10:12.115Z,33.52
2023-04-27T13:15:13.998Z,34.93
2023-04-27T13:20:15.806Z,32.53
2023-04-27T13:25:17.790Z,33.63
2023-04-27T13:30:19.721Z,34.03
2023-04-27T13:35:21.537Z,33.80
2023-04-27T13:40:23.280Z,33.84
2023-04-27T13:45:25.069Z,32.46
2023-04-27T13:50:26.864Z,33.43
2023-04-27T13:55:28.871Z,32.16
2023-04-27T14:00:34.794Z,31.13
2023-04-27T14:05:36.751Z,32.90
2023-04-27T14:10:39.159Z,29.84
2023-04-27T14:15:41.606Z,29.65
2023-04-27T14:20:44.577Z,27.40
2023-04-27T14:25:46.475Z,30.52
2023-04-27T14:30:48.264Z,29.07
2023-04-27T14:35:50.104Z,31.49
2023-04-27T14:40:51.961Z,28.47
2023-04-27T14:45:59.532Z,29.53
2023-04-27T14:51:11.125Z,28.26
2023-04-27T14:56:13.213Z,25.26
2023-04-27T15:01:15.428Z,26.02
2023-04-27T15:06:17.313Z,25.41
2023-04-27T15:11:19.221Z,28.27
2023-04-27T15:16:21.218Z,26.56
2023-04-27T15:21:23.371Z,27.67
2023-04-27T15:26:27.092Z,24.86
2023-04-27T15:31:29.088Z,26.99
2023-04-27T15:36:31.585Z,27.40
2023-04-27T15:41:33.633Z,27.44
2023-04-27T15:46:35.517Z,25.22
2023-04-27T15:51:37.303Z,24.64
2023-04-27T15:56:39.271Z,24.39
2023-04-27T16:01:41.215Z,25.80
2023-04-27T16:06:43.110Z,27.50
2023-04-27T16:11:45.141Z,24.25
2023-04-27T16:16:48.137Z,23.11
2023-04-27T16:21:50.396Z,24.63
2023-04-27T16:26:52.314Z,22.43
2023-04-27T16:31:54.231Z,26.57
2023-04-27T16:36:56.379Z,27.10
2023-04-27T16:41:58.232Z,25.12
2023-04-27T16:47:00.097Z,24.77
2023-04-27T16:52:01.978Z,23.40
2023-04-27T16:57:04.281Z,23.83
2023-04-27T17:02:23.108Z,21.97
2023-04-27T17:07:28.612Z,23.99
2023-04-27T17:12:30.602Z,26.70
2023-04-27T17:17:35.683Z,26.32
2023-04-27T17:22:37.930Z,26.40
2023-04-27T17:27:39.813Z,26.51
2023-04-27T17:32:41.751Z,25.43
2023-04-27T17:37:43.545Z,26.24
2023-04-27T17:42:45.567Z,27.53
2023-04-27T17:47:47.349Z,26.52
2023-04-27T17:52:51.174Z,26.02
2023-04-27T17:57:53.119Z,27.33
2023-04-27T18:02:55.133Z,25.01
2023-04-27T18:07:56.996Z,23.81
2023-04-27T18:12:58.860Z,23.16
2023-04-27T18:18:00.759Z,22.91
2023-04-27T18:23:02.554Z,22.99
2023-04-27T18:28:05.890Z,23.82
2023-04-27T18:33:08.524Z,23.05
2023-04-27T18:38:10.509Z,23.01
2023-04-27T18:43:12.421Z,24.23
2023-04-27T18:48:14.347Z,23.21
2023-04-27T18:53:16.380Z,26.19
2023-04-27T18:58:18.417Z,28.05
2023-04-27T19:03:20.461Z,26.99
2023-04-27T19:08:22.438Z,25.60
2023-04-27T19:13:24.314Z,24.75
2023-04-27T19:18:26.923Z,25.67
2023-04-27T19:23:28.878Z,29.64
2023-04-27T19:28:31.230Z,28.34
2023-04-27T19:33:33.089Z,27.76
2023-04-27T19:38:36.187Z,33.06
2023-04-27T19:43:37.992Z,30.85
2023-04-27T19:48:41.163Z,31.38
2023-04-27T19:53:44.278Z,29.70
2023-04-27T19:58:46.614Z,28.92
2023-04-27T20:03:48.718Z,32.36
2023-04-27T20:08:50.995Z,33.17
2023-04-27T20:13:52.860Z,30.41
2023-04-27T20:18:55.526Z,29.52
2023-04-27T20:23:57.386Z,30.19
2023-04-27T20:28:59.201Z,30.43
2023-04-27T20:34:01.092Z,30.08
2023-04-27T20:39:04.337Z,29.93
2023-04-27T20:44:06.185Z,30.29
2023-04-27T20:49:08.074Z,31.04
2023-04-27T20:54:09.848Z,30.02
2023-04-27T20:59:11.758Z,30.60
2023-04-27T21:04:13.578Z,30.36
2023-04-27T21:09:15.562Z,30.53
2023-04-27T21:14:17.540Z,34.24
2023-04-27T21:19:19.513Z,33.25
2023-04-27T21:24:21.530Z,32.85
2023-04-27T21:29:23.506Z,31.77
2023-04-27T21:34:25.441Z,32.55
2023-04-27T21:39:27.270Z,31.48
2023-04-27T21:44:29.062Z,31.84
2023-04-27T21:49:30.913Z,34.47
2023-04-27T21:54:32.694Z,34.28
2023-04-27T21:59:34.591Z,32.63
2023-04-27T22:04:38.460Z,32.60
2023-04-27T22:09:41.509Z,33.88
2023-04-27T22:14:43.405Z,33.19
2023-04-27T22:19:45.684Z,33.77
2023-04-27T22:24:47.510Z,33.83
2023-04-27T22:29:49.345Z,34.32
2023-04-27T22:34:51.490Z,33.06
2023-04-27T22:39:53.351Z,33.36
2023-04-27T22:44:55.168Z,32.58
2023-04-27T22:49:57.006Z,32.13
2023-04-27T22:54:58.833Z,34.15
2023-04-27T23:00:00.816Z,32.59
2023-04-27T23:05:02.617Z,33.02
2023-04-27T23:10:05.977Z,32.85
2023-04-27T23:15:08.349Z,33.31
2023-04-27T23:20:24.610Z,32.04
2023-04-27T23:25:32.158Z,31.74
2023-04-27T23:30:34.337Z,31.97
2023-04-27T23:35:36.156Z,32.00
2023-04-27T23:40:38.012Z,33.42
2023-04-27T23:45:39.870Z,31.02
2023-04-27T23:50:41.679Z,32.40
2023-04-27T23:55:43.472Z,31.14
